sensor_id;sensor_type;location;lat;lon;timestamp;temperature;humidity
4697;DHT22;2362;50.780;0.292;2023-07-08T00:00:19;19.50;99.90
4697;DHT22;2362;50.780;0.292;2023-07-08T00:02:45;19.50;99.90
4697;DHT22;2362;50.780;0.292;2023-07-08T00:05:13;19.50;99.90
4697;DHT22;2362;50.780;0.292;2023-07-08T00:07:40;19.60;99.90
4697;DHT22;2362;50.780;0.292;2023-07-08T00:10:21;19.60;99.90
4697;DHT22;2362;50.780;0.292;2023-07-08T00:12:51;19.60;99.90
4697;DHT22;2362;50.780;0.292;2023-07-08T00:15:18;19.60;99.90
4697;DHT22;2362;50.780;0.292;2023-07-08T00:17:46;19.60;99.90
4697;DHT22;2362;50.780;0.292;2023-07-08T00:20:22;19.60;99.90
4697;DHT22;2362;50.780;0.292;2023-07-08T00:22:48;19.50;99.90
4697;DHT22;2362;50.780;0.292;2023-07-08T00:25:17;19.40;99.90
4697;DHT22;2362;50.780;0.292;2023-07-08T00:27:45;19.40;99.90
4697;DHT22;2362;50.780;0.292;2023-07-08T00:30:22;19.40;99.90
4697;DHT22;2362;50.780;0.292;2023-07-08T00:32:49;19.40;99.90
4697;DHT22;2362;50.780;0.292;2023-07-08T00:35:25;19.40;99.90
4697;DHT22;2362;50.780;0.292;2023-07-08T00:37:52;19.40;99.90
4697;DHT22;2362;50.780;0.292;2023-07-08T00:40:30;19.50;99.90
4697;DHT22;2362;50.780;0.292;2023-07-08T00:42:59;19.50;99.90
4697;DHT22;2362;50.780;0.292;2023-07-08T00:50:42;19.30;99.90
4697;DHT22;2362;50.780;0.292;2023-07-08T00:53:24;19.20;99.90
4697;DHT22;2362;50.780;0.292;2023-07-08T00:55:52;19.10;99.90
4697;DHT22;2362;50.780;0.292;2023-07-08T00:58:21;19.10;99.90
4697;DHT22;2362;50.780;0.292;2023-07-08T01:00:49;19.00;99.90
4697;DHT22;2362;50.780;0.292;2023-07-08T01:03:17;18.90;99.90
4697;DHT22;2362;50.780;0.292;2023-07-08T01:05:44;18.90;99.90
4697;DHT22;2362;50.780;0.292;2023-07-08T01:08:10;18.90;99.90
4697;DHT22;2362;50.780;0.292;2023-07-08T01:10:49;18.90;99.90
4697;DHT22;2362;50.780;0.292;2023-07-08T01:13:17;18.90;99.90
4697;DHT22;2362;50.780;0.292;2023-07-08T01:15:45;18.90;99.90
4697;DHT22;2362;50.780;0.292;2023-07-08T01:18:14;18.90;99.90
4697;DHT22;2362;50.780;0.292;2023-07-08T01:20:46;18.90;99.90
4697;DHT22;2362;50.780;0.292;2023-07-08T01:23:13;18.80;99.90
4697;DHT22;2362;50.780;0.292;2023-07-08T01:25:40;18.80;99.90
4697;DHT22;2362;50.780;0.292;2023-07-08T01:28:07;18.70;99.90
4697;DHT22;2362;50.780;0.292;2023-07-08T01:30:33;18.70;99.90
4697;DHT22;2362;50.780;0.292;2023-07-08T01:33:17;18.70;99.90
4697;DHT22;2362;50.780;0.292;2023-07-08T01:35:45;18.80;99.90
4697;DHT22;2362;50.780;0.292;2023-07-08T01:38:12;18.80;99.90
4697;DHT22;2362;50.780;0.292;2023-07-08T01:40:57;18.70;99.90
4697;DHT22;2362;50.780;0.292;2023-07-08T01:43:23;18.70;99.90
4697;DHT22;2362;50.780;0.292;2023-07-08T01:45:50;18.80;99.90
4697;DHT22;2362;50.780;0.292;2023-07-08T01:48:20;18.70;99.90
4697;DHT22;2362;50.780;0.292;2023-07-08T01:51:05;18.80;99.90
4697;DHT22;2362;50.780;0.292;2023-07-08T01:53:36;18.70;99.90
4697;DHT22;2362;50.780;0.292;2023-07-08T01:56:04;18.80;99.90
4697;DHT22;2362;50.780;0.292;2023-07-08T01:58:30;18.80;99.90
4697;DHT22;2362;50.780;0.292;2023-07-08T02:00:56;18.80;99.90
4697;DHT22;2362;50.780;0.292;2023-07-08T02:03:22;18.80;99.90
4697;DHT22;2362;50.780;0.292;2023-07-08T02:05:48;18.90;99.90
4697;DHT22;2362;50.780;0.292;2023-07-08T02:08:14;18.80;99.90
4697;DHT22;2362;50.780;0.292;2023-07-08T02:10:41;18.90;99.90
4697;DHT22;2362;50.780;0.292;2023-07-08T02:13:07;19.00;99.90
4697;DHT22;2362;50.780;0.292;2023-07-08T02:15:33;18.90;99.90
4697;DHT22;2362;50.780;0.292;2023-07-08T02:17:59;18.90;99.90
4697;DHT22;2362;50.780;0.292;2023-07-08T02:20:24;18.90;99.90
4697;DHT22;2362;50.780;0.292;2023-07-08T02:22:50;18.90;99.90
4697;DHT22;2362;50.780;0.292;2023-07-08T02:25:16;19.00;99.90
4697;DHT22;2362;50.780;0.292;2023-07-08T02:27:42;19.00;99.90
4697;DHT22;2362;50.780;0.292;2023-07-08T02:30:08;19.20;99.90
4697;DHT22;2362;50.780;0.292;2023-07-08T02:32:34;19.30;99.90
4697;DHT22;2362;50.780;0.292;2023-07-08T02:35:02;19.30;99.90
4697;DHT22;2362;50.780;0.292;2023-07-08T02:37:29;19.30;99.90
4697;DHT22;2362;50.780;0.292;2023-07-08T02:39:55;19.20;99.90
4697;DHT22;2362;50.780;0.292;2023-07-08T02:42:21;19.10;99.90
4697;DHT22;2362;50.780;0.292;2023-07-08T02:44:47;19.10;99.90
4697;DHT22;2362;50.780;0.292;2023-07-08T02:47:12;19.00;99.90
4697;DHT22;2362;50.780;0.292;2023-07-08T02:49:38;19.00;99.90
4697;DHT22;2362;50.780;0.292;2023-07-08T02:52:04;18.90;99.90
4697;DHT22;2362;50.780;0.292;2023-07-08T02:54:30;18.80;99.90
4697;DHT22;2362;50.780;0.292;2023-07-08T02:56:55;18.70;99.90
4697;DHT22;2362;50.780;0.292;2023-07-08T02:59:21;18.70;99.90
4697;DHT22;2362;50.780;0.292;2023-07-08T03:01:47;18.60;99.90
4697;DHT22;2362;50.780;0.292;2023-07-08T03:04:13;18.60;99.90
4697;DHT22;2362;50.780;0.292;2023-07-08T03:06:43;18.70;99.90
4697;DHT22;2362;50.780;0.292;2023-07-08T03:09:10;18.60;99.90
4697;DHT22;2362;50.780;0.292;2023-07-08T03:11:38;18.60;99.90
4697;DHT22;2362;50.780;0.292;2023-07-08T03:14:05;18.50;99.90
4697;DHT22;2362;50.780;0.292;2023-07-08T03:16:31;18.50;99.90
4697;DHT22;2362;50.780;0.292;2023-07-08T03:18:57;18.60;99.90
4697;DHT22;2362;50.780;0.292;2023-07-08T03:21:23;18.60;99.90
4697;DHT22;2362;50.780;0.292;2023-07-08T03:23:49;18.60;99.90
4697;DHT22;2362;50.780;0.292;2023-07-08T03:26:23;18.60;99.90
4697;DHT22;2362;50.780;0.292;2023-07-08T03:28:49;18.60;99.90
4697;DHT22;2362;50.780;0.292;2023-07-08T03:31:16;18.60;99.90
4697;DHT22;2362;50.780;0.292;2023-07-08T03:33:42;18.60;99.90
4697;DHT22;2362;50.780;0.292;2023-07-08T03:36:16;18.60;99.90
4697;DHT22;2362;50.780;0.292;2023-07-08T03:38:52;18.60;99.90
4697;DHT22;2362;50.780;0.292;2023-07-08T03:41:18;18.70;99.90
4697;DHT22;2362;50.780;0.292;2023-07-08T03:43:44;18.60;99.90
4697;DHT22;2362;50.780;0.292;2023-07-08T03:46:11;18.60;99.90
4697;DHT22;2362;50.780;0.292;2023-07-08T03:48:38;18.70;99.90
4697;DHT22;2362;50.780;0.292;2023-07-08T03:51:04;18.70;99.90
4697;DHT22;2362;50.780;0.292;2023-07-08T03:53:32;18.60;99.90
4697;DHT22;2362;50.780;0.292;2023-07-08T03:55:58;18.60;99.90
4697;DHT22;2362;50.780;0.292;2023-07-08T03:58:23;18.70;99.90
4697;DHT22;2362;50.780;0.292;2023-07-08T04:00:49;18.60;99.90
4697;DHT22;2362;50.780;0.292;2023-07-08T04:03:15;18.60;99.90
4697;DHT22;2362;50.780;0.292;2023-07-08T04:05:40;18.60;99.90
4697;DHT22;2362;50.780;0.292;2023-07-08T04:08:06;18.60;99.90
4697;DHT22;2362;50.780;0.292;2023-07-08T04:10:31;18.60;99.90
4697;DHT22;2362;50.780;0.292;2023-07-08T04:12:57;18.70;99.90
4697;DHT22;2362;50.780;0.292;2023-07-08T04:15:23;18.70;99.90
4697;DHT22;2362;50.780;0.292;2023-07-08T04:17:51;18.80;99.90
4697;DHT22;2362;50.780;0.292;2023-07-08T04:20:18;18.90;99.90
4697;DHT22;2362;50.780;0.292;2023-07-08T04:22:44;19.00;99.90
4697;DHT22;2362;50.780;0.292;2023-07-08T04:25:11;19.00;99.90
4697;DHT22;2362;50.780;0.292;2023-07-08T04:27:39;19.10;99.90
4697;DHT22;2362;50.780;0.292;2023-07-08T04:30:06;19.10;99.90
4697;DHT22;2362;50.780;0.292;2023-07-08T04:32:32;19.00;99.90
4697;DHT22;2362;50.780;0.292;2023-07-08T04:34:58;19.00;99.90
4697;DHT22;2362;50.780;0.292;2023-07-08T04:37:24;18.90;99.90
4697;DHT22;2362;50.780;0.292;2023-07-08T04:39:49;18.90;99.90
4697;DHT22;2362;50.780;0.292;2023-07-08T04:42:15;18.80;99.90
4697;DHT22;2362;50.780;0.292;2023-07-08T04:44:43;18.80;99.90
4697;DHT22;2362;50.780;0.292;2023-07-08T04:47:09;18.90;99.90
4697;DHT22;2362;50.780;0.292;2023-07-08T04:49:37;18.80;99.90
4697;DHT22;2362;50.780;0.292;2023-07-08T04:52:03;18.90;99.90
4697;DHT22;2362;50.780;0.292;2023-07-08T04:54:29;18.90;99.90
4697;DHT22;2362;50.780;0.292;2023-07-08T04:56:55;19.00;99.90
4697;DHT22;2362;50.780;0.292;2023-07-08T04:59:22;19.00;99.90
4697;DHT22;2362;50.780;0.292;2023-07-08T05:01:49;19.00;99.90
4697;DHT22;2362;50.780;0.292;2023-07-08T05:04:16;19.00;99.90
4697;DHT22;2362;50.780;0.292;2023-07-08T05:06:42;19.10;99.90
4697;DHT22;2362;50.780;0.292;2023-07-08T05:09:09;19.40;99.90
4697;DHT22;2362;50.780;0.292;2023-07-08T05:11:35;20.00;99.90
4697;DHT22;2362;50.780;0.292;2023-07-08T05:14:02;20.70;99.90
4697;DHT22;2362;50.780;0.292;2023-07-08T05:16:28;21.30;99.90
4697;DHT22;2362;50.780;0.292;2023-07-08T05:18:54;22.00;99.90
4697;DHT22;2362;50.780;0.292;2023-07-08T05:21:20;22.50;99.90
4697;DHT22;2362;50.780;0.292;2023-07-08T05:23:47;22.90;99.90
4697;DHT22;2362;50.780;0.292;2023-07-08T05:26:15;23.20;99.90
4697;DHT22;2362;50.780;0.292;2023-07-08T05:28:41;23.30;99.90
4697;DHT22;2362;50.780;0.292;2023-07-08T05:31:07;23.50;99.90
4697;DHT22;2362;50.780;0.292;2023-07-08T05:33:33;23.40;99.90
4697;DHT22;2362;50.780;0.292;2023-07-08T05:35:59;23.90;99.90
4697;DHT22;2362;50.780;0.292;2023-07-08T05:38:26;24.40;99.90
4697;DHT22;2362;50.780;0.292;2023-07-08T05:40:56;24.50;99.90
4697;DHT22;2362;50.780;0.292;2023-07-08T05:43:22;24.70;99.90
4697;DHT22;2362;50.780;0.292;2023-07-08T05:45:48;25.10;99.90
4697;DHT22;2362;50.780;0.292;2023-07-08T05:48:14;25.20;99.90
4697;DHT22;2362;50.780;0.292;2023-07-08T05:50:40;25.20;99.90
4697;DHT22;2362;50.780;0.292;2023-07-08T05:53:09;25.50;99.90
4697;DHT22;2362;50.780;0.292;2023-07-08T05:55:35;25.00;99.90
4697;DHT22;2362;50.780;0.292;2023-07-08T05:58:01;24.80;99.90
4697;DHT22;2362;50.780;0.292;2023-07-08T06:00:26;24.80;99.90
4697;DHT22;2362;50.780;0.292;2023-07-08T06:02:52;24.70;99.90
4697;DHT22;2362;50.780;0.292;2023-07-08T06:05:18;24.90;99.90
4697;DHT22;2362;50.780;0.292;2023-07-08T06:07:43;25.10;99.90
4697;DHT22;2362;50.780;0.292;2023-07-08T06:10:09;25.50;99.90
4697;DHT22;2362;50.780;0.292;2023-07-08T06:12:34;26.10;99.90
4697;DHT22;2362;50.780;0.292;2023-07-08T06:15:00;26.70;99.90
4697;DHT22;2362;50.780;0.292;2023-07-08T06:17:26;27.40;99.90
4697;DHT22;2362;50.780;0.292;2023-07-08T06:19:52;27.70;99.90
4697;DHT22;2362;50.780;0.292;2023-07-08T06:22:17;27.40;99.90
4697;DHT22;2362;50.780;0.292;2023-07-08T06:24:43;27.80;99.90
4697;DHT22;2362;50.780;0.292;2023-07-08T06:27:09;28.30;99.90
4697;DHT22;2362;50.780;0.292;2023-07-08T06:29:35;28.30;99.90
4697;DHT22;2362;50.780;0.292;2023-07-08T06:32:01;28.20;99.90
4697;DHT22;2362;50.780;0.292;2023-07-08T06:34:27;27.80;99.90
4697;DHT22;2362;50.780;0.292;2023-07-08T06:36:53;28.50;99.90
4697;DHT22;2362;50.780;0.292;2023-07-08T06:39:19;29.40;99.90
4697;DHT22;2362;50.780;0.292;2023-07-08T06:41:45;29.50;99.90
4697;DHT22;2362;50.780;0.292;2023-07-08T06:44:11;29.50;99.90
4697;DHT22;2362;50.780;0.292;2023-07-08T06:46:36;29.40;99.90
4697;DHT22;2362;50.780;0.292;2023-07-08T06:49:02;29.90;99.90
4697;DHT22;2362;50.780;0.292;2023-07-08T06:51:28;29.90;99.90
4697;DHT22;2362;50.780;0.292;2023-07-08T06:53:54;29.80;99.90
4697;DHT22;2362;50.780;0.292;2023-07-08T06:56:19;30.10;99.90
4697;DHT22;2362;50.780;0.292;2023-07-08T06:58:45;30.10;99.90
4697;DHT22;2362;50.780;0.292;2023-07-08T07:01:11;30.50;99.90
4697;DHT22;2362;50.780;0.292;2023-07-08T07:03:37;30.50;99.90
4697;DHT22;2362;50.780;0.292;2023-07-08T07:06:02;30.70;99.90
4697;DHT22;2362;50.780;0.292;2023-07-08T07:08:28;30.40;99.90
4697;DHT22;2362;50.780;0.292;2023-07-08T07:10:54;30.40;99.90
4697;DHT22;2362;50.780;0.292;2023-07-08T07:13:19;30.70;99.90
4697;DHT22;2362;50.780;0.292;2023-07-08T07:15:47;31.00;99.90
4697;DHT22;2362;50.780;0.292;2023-07-08T07:18:13;31.20;99.90
4697;DHT22;2362;50.780;0.292;2023-07-08T07:20:40;31.40;99.90
4697;DHT22;2362;50.780;0.292;2023-07-08T07:23:11;31.30;99.90
4697;DHT22;2362;50.780;0.292;2023-07-08T07:25:37;30.40;99.90
4697;DHT22;2362;50.780;0.292;2023-07-08T07:28:03;29.90;99.90
4697;DHT22;2362;50.780;0.292;2023-07-08T07:30:29;29.50;99.90
4697;DHT22;2362;50.780;0.292;2023-07-08T07:32:59;28.80;99.90
4697;DHT22;2362;50.780;0.292;2023-07-08T07:35:25;28.40;99.90
4697;DHT22;2362;50.780;0.292;2023-07-08T07:37:51;28.40;99.90
4697;DHT22;2362;50.780;0.292;2023-07-08T07:40:16;28.30;99.90
4697;DHT22;2362;50.780;0.292;2023-07-08T07:42:43;27.90;99.90
4697;DHT22;2362;50.780;0.292;2023-07-08T07:45:10;27.60;99.90
4697;DHT22;2362;50.780;0.292;2023-07-08T07:47:36;28.00;99.90
4697;DHT22;2362;50.780;0.292;2023-07-08T07:50:06;28.00;99.90
4697;DHT22;2362;50.780;0.292;2023-07-08T07:52:33;27.70;99.90
4697;DHT22;2362;50.780;0.292;2023-07-08T07:54:58;26.90;99.90
4697;DHT22;2362;50.780;0.292;2023-07-08T07:57:24;26.20;99.90
4697;DHT22;2362;50.780;0.292;2023-07-08T07:59:50;26.00;99.90
4697;DHT22;2362;50.780;0.292;2023-07-08T08:02:16;25.80;99.90
4697;DHT22;2362;50.780;0.292;2023-07-08T08:04:42;25.50;99.90
4697;DHT22;2362;50.780;0.292;2023-07-08T08:07:08;25.50;99.90
4697;DHT22;2362;50.780;0.292;2023-07-08T08:09:35;25.40;99.90
4697;DHT22;2362;50.780;0.292;2023-07-08T08:12:02;25.40;99.90
4697;DHT22;2362;50.780;0.292;2023-07-08T08:14:28;25.10;99.90
4697;DHT22;2362;50.780;0.292;2023-07-08T08:16:53;25.00;99.90
4697;DHT22;2362;50.780;0.292;2023-07-08T08:19:19;24.70;99.90
4697;DHT22;2362;50.780;0.292;2023-07-08T08:21:45;24.50;99.90
4697;DHT22;2362;50.780;0.292;2023-07-08T08:24:10;24.40;99.90
4697;DHT22;2362;50.780;0.292;2023-07-08T08:26:36;24.40;99.90
4697;DHT22;2362;50.780;0.292;2023-07-08T08:29:02;24.40;99.90
4697;DHT22;2362;50.780;0.292;2023-07-08T08:31:27;24.50;99.90
4697;DHT22;2362;50.780;0.292;2023-07-08T08:33:53;24.70;99.90
4697;DHT22;2362;50.780;0.292;2023-07-08T08:36:19;24.90;99.90
4697;DHT22;2362;50.780;0.292;2023-07-08T08:38:46;25.40;99.90
4697;DHT22;2362;50.780;0.292;2023-07-08T08:41:13;26.20;99.90
4697;DHT22;2362;50.780;0.292;2023-07-08T08:43:41;26.50;99.90
4697;DHT22;2362;50.780;0.292;2023-07-08T08:48:55;27.10;99.90
4697;DHT22;2362;50.780;0.292;2023-07-08T08:51:24;27.10;99.90
4697;DHT22;2362;50.780;0.292;2023-07-08T08:53:51;27.30;99.90
4697;DHT22;2362;50.780;0.292;2023-07-08T08:56:25;27.10;99.90
4697;DHT22;2362;50.780;0.292;2023-07-08T08:58:57;27.20;99.90
4697;DHT22;2362;50.780;0.292;2023-07-08T09:01:24;26.60;99.90
4697;DHT22;2362;50.780;0.292;2023-07-08T09:04:00;26.30;99.90
4697;DHT22;2362;50.780;0.292;2023-07-08T09:06:29;26.30;99.90
4697;DHT22;2362;50.780;0.292;2023-07-08T09:09:00;26.20;99.90
4697;DHT22;2362;50.780;0.292;2023-07-08T09:14:23;26.20;99.90
4697;DHT22;2362;50.780;0.292;2023-07-08T09:16:52;26.00;99.90
4697;DHT22;2362;50.780;0.292;2023-07-08T09:19:28;25.90;99.90
4697;DHT22;2362;50.780;0.292;2023-07-08T09:22:20;25.60;99.90
4697;DHT22;2362;50.780;0.292;2023-07-08T09:24:56;25.40;99.90
4697;DHT22;2362;50.780;0.292;2023-07-08T09:27:22;25.30;99.90
4697;DHT22;2362;50.780;0.292;2023-07-08T09:29:48;25.20;99.90
4697;DHT22;2362;50.780;0.292;2023-07-08T09:32:26;25.30;99.90
4697;DHT22;2362;50.780;0.292;2023-07-08T09:35:01;25.30;99.90
4697;DHT22;2362;50.780;0.292;2023-07-08T09:37:30;25.20;99.90
4697;DHT22;2362;50.780;0.292;2023-07-08T09:39:57;25.30;99.90
4697;DHT22;2362;50.780;0.292;2023-07-08T09:42:30;25.30;99.90
4697;DHT22;2362;50.780;0.292;2023-07-08T09:45:02;25.30;99.90
4697;DHT22;2362;50.780;0.292;2023-07-08T09:47:35;25.30;99.90
4697;DHT22;2362;50.780;0.292;2023-07-08T09:50:04;25.10;99.90
4697;DHT22;2362;50.780;0.292;2023-07-08T09:52:31;25.10;99.90
4697;DHT22;2362;50.780;0.292;2023-07-08T09:54:56;25.20;99.90
4697;DHT22;2362;50.780;0.292;2023-07-08T09:57:31;25.40;99.90
4697;DHT22;2362;50.780;0.292;2023-07-08T10:00:10;25.50;99.90
4697;DHT22;2362;50.780;0.292;2023-07-08T10:02:53;25.80;99.90
4697;DHT22;2362;50.780;0.292;2023-07-08T10:05:43;26.00;99.90
4697;DHT22;2362;50.780;0.292;2023-07-08T10:08:17;26.30;99.90
4697;DHT22;2362;50.780;0.292;2023-07-08T10:10:43;26.30;99.90
4697;DHT22;2362;50.780;0.292;2023-07-08T10:15:49;26.50;99.90
4697;DHT22;2362;50.780;0.292;2023-07-08T10:18:23;26.50;99.90
4697;DHT22;2362;50.780;0.292;2023-07-08T10:26:32;26.70;99.90
4697;DHT22;2362;50.780;0.292;2023-07-08T10:37:07;26.60;99.90
4697;DHT22;2362;50.780;0.292;2023-07-08T10:42:32;26.50;99.90
4697;DHT22;2362;50.780;0.292;2023-07-08T10:45:15;26.60;99.90
4697;DHT22;2362;50.780;0.292;2023-07-08T10:53:42;27.00;99.90
4697;DHT22;2362;50.780;0.292;2023-07-08T11:02:07;27.00;99.90
4697;DHT22;2362;50.780;0.292;2023-07-08T11:07:48;26.80;99.90
4697;DHT22;2362;50.780;0.292;2023-07-08T11:13:19;27.10;99.90
4697;DHT22;2362;50.780;0.292;2023-07-08T11:15:57;27.20;99.90
4697;DHT22;2362;50.780;0.292;2023-07-08T11:24:00;27.30;99.90
4697;DHT22;2362;50.780;0.292;2023-07-08T11:26:41;27.40;99.90
4697;DHT22;2362;50.780;0.292;2023-07-08T11:29:20;27.10;99.90
4697;DHT22;2362;50.780;0.292;2023-07-08T11:31:48;26.80;99.90
4697;DHT22;2362;50.780;0.292;2023-07-08T11:34:15;26.70;99.90
4697;DHT22;2362;50.780;0.292;2023-07-08T11:36:42;26.60;99.90
4697;DHT22;2362;50.780;0.292;2023-07-08T11:39:46;26.60;99.90
4697;DHT22;2362;50.780;0.292;2023-07-08T11:42:42;26.50;99.90
4697;DHT22;2362;50.780;0.292;2023-07-08T11:47:49;26.40;99.90
4697;DHT22;2362;50.780;0.292;2023-07-08T11:50:38;26.20;99.90
4697;DHT22;2362;50.780;0.292;2023-07-08T11:53:11;25.90;99.90
4697;DHT22;2362;50.780;0.292;2023-07-08T11:55:38;25.50;99.90
4697;DHT22;2362;50.780;0.292;2023-07-08T12:03:41;24.50;99.90
4697;DHT22;2362;50.780;0.292;2023-07-08T12:08:54;24.30;99.90
4697;DHT22;2362;50.780;0.292;2023-07-08T12:11:32;24.30;99.90
4697;DHT22;2362;50.780;0.292;2023-07-08T12:14:00;24.30;99.90
4697;DHT22;2362;50.780;0.292;2023-07-08T12:16:27;24.10;99.90
4697;DHT22;2362;50.780;0.292;2023-07-08T12:18:54;23.70;99.90
4697;DHT22;2362;50.780;0.292;2023-07-08T12:21:23;23.40;99.90
4697;DHT22;2362;50.780;0.292;2023-07-08T12:23:50;23.10;99.90
4697;DHT22;2362;50.780;0.292;2023-07-08T12:26:16;22.80;99.90
4697;DHT22;2362;50.780;0.292;2023-07-08T12:28:42;22.50;99.90
4697;DHT22;2362;50.780;0.292;2023-07-08T12:31:19;22.20;99.90
4697;DHT22;2362;50.780;0.292;2023-07-08T12:33:47;22.00;99.90
4697;DHT22;2362;50.780;0.292;2023-07-08T12:36:20;21.80;99.90
4697;DHT22;2362;50.780;0.292;2023-07-08T12:38:47;21.70;99.90
4697;DHT22;2362;50.780;0.292;2023-07-08T12:41:28;21.60;99.90
4697;DHT22;2362;50.780;0.292;2023-07-08T12:43:55;21.50;99.90
4697;DHT22;2362;50.780;0.292;2023-07-08T12:46:23;21.50;99.90
4697;DHT22;2362;50.780;0.292;2023-07-08T12:48:49;21.60;99.90
4697;DHT22;2362;50.780;0.292;2023-07-08T12:51:18;21.70;99.90
4697;DHT22;2362;50.780;0.292;2023-07-08T12:53:46;21.90;99.90
4697;DHT22;2362;50.780;0.292;2023-07-08T12:56:12;22.20;99.90
4697;DHT22;2362;50.780;0.292;2023-07-08T12:58:41;22.50;99.90
4697;DHT22;2362;50.780;0.292;2023-07-08T13:01:08;22.90;99.90
4697;DHT22;2362;50.780;0.292;2023-07-08T13:03:37;23.00;99.90
4697;DHT22;2362;50.780;0.292;2023-07-08T13:06:07;23.00;99.90
4697;DHT22;2362;50.780;0.292;2023-07-08T13:08:36;23.10;99.90
4697;DHT22;2362;50.780;0.292;2023-07-08T13:11:03;23.20;99.90
4697;DHT22;2362;50.780;0.292;2023-07-08T13:13:56;23.30;99.90
4697;DHT22;2362;50.780;0.292;2023-07-08T13:16:30;23.40;99.90
4697;DHT22;2362;50.780;0.292;2023-07-08T13:18:56;23.60;99.90
4697;DHT22;2362;50.780;0.292;2023-07-08T13:21:22;23.80;99.90
4697;DHT22;2362;50.780;0.292;2023-07-08T13:23:50;24.00;99.90
4697;DHT22;2362;50.780;0.292;2023-07-08T13:26:19;24.10;99.90
4697;DHT22;2362;50.780;0.292;2023-07-08T13:28:46;24.20;99.90
4697;DHT22;2362;50.780;0.292;2023-07-08T13:31:17;24.30;99.90
4697;DHT22;2362;50.780;0.292;2023-07-08T13:33:48;24.30;99.90
4697;DHT22;2362;50.780;0.292;2023-07-08T13:36:17;24.30;99.90
4697;DHT22;2362;50.780;0.292;2023-07-08T13:38:44;24.30;99.90
4697;DHT22;2362;50.780;0.292;2023-07-08T13:41:10;24.30;99.90
4697;DHT22;2362;50.780;0.292;2023-07-08T13:43:39;24.30;99.90
4697;DHT22;2362;50.780;0.292;2023-07-08T13:48:53;24.50;99.90
4697;DHT22;2362;50.780;0.292;2023-07-08T13:51:21;24.50;99.90
4697;DHT22;2362;50.780;0.292;2023-07-08T13:53:49;24.50;99.90
4697;DHT22;2362;50.780;0.292;2023-07-08T13:56:18;24.50;99.90
4697;DHT22;2362;50.780;0.292;2023-07-08T13:58:48;24.50;99.90
4697;DHT22;2362;50.780;0.292;2023-07-08T14:01:24;24.70;99.90
4697;DHT22;2362;50.780;0.292;2023-07-08T14:03:52;24.90;99.90
4697;DHT22;2362;50.780;0.292;2023-07-08T14:06:24;25.10;99.90
4697;DHT22;2362;50.780;0.292;2023-07-08T14:08:56;25.30;99.90
4697;DHT22;2362;50.780;0.292;2023-07-08T14:11:22;25.50;99.90
4697;DHT22;2362;50.780;0.292;2023-07-08T14:13:48;25.60;99.90
4697;DHT22;2362;50.780;0.292;2023-07-08T14:16:27;25.80;99.90
4697;DHT22;2362;50.780;0.292;2023-07-08T14:19:01;26.00;99.90
4697;DHT22;2362;50.780;0.292;2023-07-08T14:21:33;26.20;99.90
4697;DHT22;2362;50.780;0.292;2023-07-08T14:23:59;26.10;99.90
4697;DHT22;2362;50.780;0.292;2023-07-08T14:26:24;26.00;99.90
4697;DHT22;2362;50.780;0.292;2023-07-08T14:28:50;25.90;99.90
4697;DHT22;2362;50.780;0.292;2023-07-08T14:31:22;25.90;99.90
4697;DHT22;2362;50.780;0.292;2023-07-08T14:33:52;25.50;99.90
4697;DHT22;2362;50.780;0.292;2023-07-08T14:36:24;25.40;99.90
4697;DHT22;2362;50.780;0.292;2023-07-08T14:38:50;25.30;99.90
4697;DHT22;2362;50.780;0.292;2023-07-08T14:41:16;25.40;99.90
4697;DHT22;2362;50.780;0.292;2023-07-08T14:43:41;25.60;99.90
4697;DHT22;2362;50.780;0.292;2023-07-08T14:46:09;25.60;99.90
4697;DHT22;2362;50.780;0.292;2023-07-08T14:48:35;25.60;99.90
4697;DHT22;2362;50.780;0.292;2023-07-08T14:51:01;25.60;99.90
4697;DHT22;2362;50.780;0.292;2023-07-08T14:53:27;25.60;99.90
4697;DHT22;2362;50.780;0.292;2023-07-08T14:55:54;25.80;99.90
4697;DHT22;2362;50.780;0.292;2023-07-08T15:00:49;26.10;99.90
4697;DHT22;2362;50.780;0.292;2023-07-08T15:03:15;26.20;99.90
4697;DHT22;2362;50.780;0.292;2023-07-08T15:05:41;25.90;99.90
4697;DHT22;2362;50.780;0.292;2023-07-08T15:08:07;25.70;99.90
4697;DHT22;2362;50.780;0.292;2023-07-08T15:10:34;25.60;99.90
4697;DHT22;2362;50.780;0.292;2023-07-08T15:13:00;25.80;99.90
4697;DHT22;2362;50.780;0.292;2023-07-08T15:15:28;25.70;99.90
4697;DHT22;2362;50.780;0.292;2023-07-08T15:17:59;25.60;99.90
4697;DHT22;2362;50.780;0.292;2023-07-08T15:20:25;25.60;99.90
4697;DHT22;2362;50.780;0.292;2023-07-08T15:22:51;25.50;99.90
4697;DHT22;2362;50.780;0.292;2023-07-08T15:25:18;25.40;99.90
4697;DHT22;2362;50.780;0.292;2023-07-08T15:27:53;25.40;99.90
4697;DHT22;2362;50.780;0.292;2023-07-08T15:30:22;25.30;99.90
4697;DHT22;2362;50.780;0.292;2023-07-08T15:32:48;25.30;99.90
4697;DHT22;2362;50.780;0.292;2023-07-08T15:35:28;25.30;99.90
4697;DHT22;2362;50.780;0.292;2023-07-08T15:37:59;25.30;99.90
4697;DHT22;2362;50.780;0.292;2023-07-08T15:40:30;25.20;99.90
4697;DHT22;2362;50.780;0.292;2023-07-08T15:42:58;25.20;99.90
4697;DHT22;2362;50.780;0.292;2023-07-08T15:45:27;25.50;99.90
4697;DHT22;2362;50.780;0.292;2023-07-08T15:47:54;25.70;99.90
4697;DHT22;2362;50.780;0.292;2023-07-08T15:50:22;25.80;99.90
4697;DHT22;2362;50.780;0.292;2023-07-08T15:52:49;25.60;99.90
4697;DHT22;2362;50.780;0.292;2023-07-08T15:55:20;25.70;99.90
4697;DHT22;2362;50.780;0.292;2023-07-08T15:57:53;25.70;99.90
4697;DHT22;2362;50.780;0.292;2023-07-08T16:00:27;25.90;99.90
4697;DHT22;2362;50.780;0.292;2023-07-08T16:02:59;26.10;99.90
4697;DHT22;2362;50.780;0.292;2023-07-08T16:05:26;26.10;99.90
4697;DHT22;2362;50.780;0.292;2023-07-08T16:07:53;25.80;99.90
4697;DHT22;2362;50.780;0.292;2023-07-08T16:10:19;25.70;99.90
4697;DHT22;2362;50.780;0.292;2023-07-08T16:12:47;25.60;99.90
4697;DHT22;2362;50.780;0.292;2023-07-08T16:15:18;25.70;99.90
4697;DHT22;2362;50.780;0.292;2023-07-08T16:17:44;25.70;99.90
4697;DHT22;2362;50.780;0.292;2023-07-08T16:20:19;25.80;99.90
4697;DHT22;2362;50.780;0.292;2023-07-08T16:22:45;25.60;99.90
4697;DHT22;2362;50.780;0.292;2023-07-08T16:25:13;25.50;99.90
4697;DHT22;2362;50.780;0.292;2023-07-08T16:27:41;25.60;99.90
4697;DHT22;2362;50.780;0.292;2023-07-08T16:30:12;25.60;99.90
4697;DHT22;2362;50.780;0.292;2023-07-08T16:32:39;25.80;99.90
4697;DHT22;2362;50.780;0.292;2023-07-08T16:35:04;26.00;99.90
4697;DHT22;2362;50.780;0.292;2023-07-08T16:37:30;26.10;99.90
4697;DHT22;2362;50.780;0.292;2023-07-08T16:39:56;26.20;99.90
4697;DHT22;2362;50.780;0.292;2023-07-08T16:42:23;26.10;99.90
4697;DHT22;2362;50.780;0.292;2023-07-08T16:44:48;26.10;99.90
4697;DHT22;2362;50.780;0.292;2023-07-08T16:47:14;26.20;99.90
4697;DHT22;2362;50.780;0.292;2023-07-08T16:49:40;26.00;99.90
4697;DHT22;2362;50.780;0.292;2023-07-08T16:52:11;25.90;99.90
4697;DHT22;2362;50.780;0.292;2023-07-08T16:54:38;25.90;99.90
4697;DHT22;2362;50.780;0.292;2023-07-08T16:57:06;25.70;99.90
4697;DHT22;2362;50.780;0.292;2023-07-08T16:59:32;25.80;99.90
4697;DHT22;2362;50.780;0.292;2023-07-08T17:01:58;25.50;99.90
4697;DHT22;2362;50.780;0.292;2023-07-08T17:04:24;25.60;99.90
4697;DHT22;2362;50.780;0.292;2023-07-08T17:06:49;25.70;99.90
4697;DHT22;2362;50.780;0.292;2023-07-08T17:09:15;25.90;99.90
4697;DHT22;2362;50.780;0.292;2023-07-08T17:11:41;26.00;99.90
4697;DHT22;2362;50.780;0.292;2023-07-08T17:14:07;25.90;99.90
4697;DHT22;2362;50.780;0.292;2023-07-08T17:16:35;25.80;99.90
4697;DHT22;2362;50.780;0.292;2023-07-08T17:19:02;25.60;99.90